createdAt,value
2022-12-09T00:00:19.532Z,6.03
2022-12-09T00:03:24.695Z,6.93
2022-12-09T00:06:30.886Z,6.27
2022-12-09T00:09:35.981Z,6.63
2022-12-09T00:12:40.961Z,6.63
2022-12-09T00:15:47.578Z,6.37
2022-12-09T00:18:53.612Z,6.80
2022-12-09T00:21:58.490Z,6.63
2022-12-09T00:25:03.660Z,7.30
2022-12-09T00:28:08.817Z,7.27
2022-12-09T00:31:16.396Z,6.97
2022-12-09T00:34:24.211Z,7.37
2022-12-09T00:37:29.190Z,7.50
2022-12-09T00:40:36.618Z,7.40
2022-12-09T00:43:41.797Z,7.40
2022-12-09T00:46:48.880Z,7.83
2022-12-09T00:49:54.060Z,7.50
2022-12-09T00:52:58.899Z,7.23
2022-12-09T00:56:05.410Z,7.60
2022-12-09T00:59:11.243Z,7.93
2022-12-09T01:02:17.599Z,7.47
2022-12-09T01:05:22.729Z,7.77
2022-12-09T01:08:27.919Z,7.60
2022-12-09T01:11:32.815Z,8.90
2022-12-09T01:14:37.778Z,8.43
2022-12-09T01:17:44.224Z,7.47
2022-12-09T01:20:58.299Z,8.90
2022-12-09T01:24:06.876Z,8.87
2022-12-09T01:27:12.235Z,8.97
2022-12-09T01:30:17.263Z,8.10
2022-12-09T01:33:23.749Z,8.60
2022-12-09T01:36:30.453Z,7.37
2022-12-09T01:39:35.788Z,6.20
2022-12-09T01:42:40.912Z,5.87
2022-12-09T01:45:46.247Z,5.70
2022-12-09T01:48:52.959Z,5.60
2022-12-09T01:52:02.810Z,6.27
2022-12-09T01:55:09.739Z,6.00
2022-12-09T01:58:16.151Z,5.27
2022-12-09T02:01:21.529Z,5.30
2022-12-09T02:04:28.732Z,6.10
2022-12-09T02:07:34.444Z,5.80
2022-12-09T02:10:44.607Z,5.50
2022-12-09T02:13:53.694Z,5.37
2022-12-09T02:17:10.336Z,5.93
2022-12-09T02:20:21.039Z,5.67
2022-12-09T02:23:29.115Z,5.43
2022-12-09T02:26:40.133Z,5.83
2022-12-09T02:29:58.475Z,5.63
2022-12-09T02:33:23.672Z,6.17
2022-12-09T02:36:34.964Z,5.60
2022-12-09T02:39:44.111Z,5.17
2022-12-09T02:42:50.853Z,4.87
2022-12-09T02:45:57.315Z,4.47
2022-12-09T02:49:02.775Z,5.43
2022-12-09T02:52:09.700Z,4.33
2022-12-09T02:55:18.077Z,4.23
2022-12-09T02:58:23.190Z,3.90
2022-12-09T03:01:36.635Z,4.23
2022-12-09T03:04:44.403Z,4.63
2022-12-09T03:07:56.475Z,4.30
2022-12-09T03:11:03.844Z,3.93
2022-12-09T03:14:11.437Z,4.30
2022-12-09T03:17:20.816Z,4.20
2022-12-09T03:20:29.175Z,4.57
2022-12-09T03:23:37.551Z,4.40
2022-12-09T03:26:44.612Z,4.70
2022-12-09T03:29:50.413Z,4.03
2022-12-09T03:32:56.848Z,4.00
2022-12-09T03:36:05.774Z,4.10
2022-12-09T03:39:15.574Z,3.90
2022-12-09T03:42:23.226Z,3.77
2022-12-09T03:45:29.044Z,3.80
2022-12-09T03:48:34.592Z,4.00
2022-12-09T03:51:43.785Z,3.13
2022-12-09T03:54:53.508Z,3.60
2022-12-09T03:58:00.231Z,3.13
2022-12-09T04:01:05.274Z,3.20
2022-12-09T04:04:11.320Z,3.50
2022-12-09T04:07:16.504Z,3.20
2022-12-09T04:10:23.056Z,3.60
2022-12-09T04:13:28.213Z,3.10
2022-12-09T04:16:33.213Z,2.83
2022-12-09T04:19:38.247Z,3.40
2022-12-09T04:22:43.311Z,2.97
2022-12-09T04:25:51.042Z,3.37
2022-12-09T04:28:56.280Z,3.27
2022-12-09T04:32:02.158Z,3.50
2022-12-09T04:35:08.271Z,3.00
2022-12-09T04:38:14.506Z,3.10
2022-12-09T04:41:20.737Z,3.03
2022-12-09T04:44:26.048Z,3.00
2022-12-09T04:47:31.170Z,3.40
2022-12-09T04:50:36.433Z,2.90
2022-12-09T04:53:41.946Z,3.27
2022-12-09T04:56:48.375Z,3.50
2022-12-09T04:59:53.619Z,3.80
2022-12-09T05:02:58.946Z,3.10
2022-12-09T05:06:05.611Z,3.13
2022-12-09T05:09:13.423Z,3.17
2022-12-09T05:12:20.054Z,3.93
2022-12-09T05:15:25.108Z,4.07
2022-12-09T05:18:30.740Z,4.83
2022-12-09T05:21:35.711Z,4.50
2022-12-09T05:24:41.225Z,5.53
2022-12-09T05:27:47.764Z,6.90
2022-12-09T05:30:52.795Z,6.53
2022-12-09T05:33:58.522Z,11.53
2022-12-09T05:37:03.720Z,10.77
2022-12-09T05:40:10.253Z,10.70
2022-12-09T05:43:16.790Z,6.30
2022-12-09T05:46:22.642Z,5.80
2022-12-09T05:49:27.975Z,5.50
2022-12-09T05:52:32.995Z,6.00
2022-12-09T05:55:42.090Z,7.10
2022-12-09T05:58:49.180Z,6.83
2022-12-09T06:01:55.060Z,7.03
2022-12-09T06:05:00.230Z,5.30
2022-12-09T06:08:07.395Z,4.33
2022-12-09T06:11:15.567Z,3.60
2022-12-09T06:14:22.054Z,4.00
2022-12-09T06:17:26.994Z,3.50
2022-12-09T06:20:32.484Z,3.27
2022-12-09T06:23:38.042Z,4.07
2022-12-09T06:26:43.596Z,3.80
2022-12-09T06:29:50.135Z,3.57
2022-12-09T06:32:55.097Z,4.07
2022-12-09T06:36:04.089Z,4.13
2022-12-09T06:39:11.078Z,3.90
2022-12-09T06:42:16.733Z,3.30
2022-12-09T06:45:23.599Z,4.10
2022-12-09T06:48:28.824Z,4.00
2022-12-09T06:51:34.477Z,3.47
2022-12-09T06:54:39.585Z,4.20
2022-12-09T06:57:44.558Z,3.80
2022-12-09T07:00:51.724Z,3.80
2022-12-09T07:03:58.340Z,4.30
2022-12-09T07:07:03.506Z,3.73
2022-12-09T07:10:10.746Z,6.93
2022-12-09T07:13:16.621Z,10.70
2022-12-09T07:16:23.131Z,16.03
2022-12-09T07:19:28.542Z,20.93
2022-12-09T07:22:35.009Z,21.23
2022-12-09T07:25:40.143Z,24.70
2022-12-09T07:28:47.368Z,25.07
2022-12-09T07:31:54.233Z,21.50
2022-12-09T07:34:59.516Z,22.13
2022-12-09T07:38:04.487Z,21.80
2022-12-09T07:41:18.291Z,18.57
2022-12-09T07:44:23.496Z,14.33
2022-12-09T07:47:30.276Z,12.87
2022-12-09T07:50:35.738Z,12.73
2022-12-09T07:53:41.392Z,12.30
2022-12-09T07:56:47.061Z,12.33
2022-12-09T07:59:53.474Z,12.90
2022-12-09T08:03:00.106Z,10.07
2022-12-09T08:06:05.845Z,10.53
2022-12-09T08:09:14.951Z,12.07
2022-12-09T08:12:20.182Z,11.10
2022-12-09T08:15:25.086Z,13.60
2022-12-09T08:18:31.853Z,15.87
2022-12-09T08:21:36.930Z,16.73
2022-12-09T08:24:41.983Z,15.27
2022-12-09T08:27:47.674Z,11.63
2022-12-09T08:30:53.100Z,10.47
2022-12-09T08:34:00.089Z,9.30
2022-12-09T08:37:05.153Z,7.23
2022-12-09T08:40:11.333Z,5.40
2022-12-09T08:43:16.575Z,4.30
2022-12-09T08:46:21.867Z,3.70
2022-12-09T08:49:29.870Z,3.60
2022-12-09T08:52:40.306Z,3.70
2022-12-09T08:55:46.252Z,3.30
2022-12-09T08:58:51.208Z,13.27
2022-12-09T09:01:56.359Z,4.40
2022-12-09T09:05:04.028Z,3.40
2022-12-09T09:08:09.732Z,3.33
2022-12-09T09:11:16.855Z,3.30
2022-12-09T09:14:22.214Z,3.40
2022-12-09T09:17:27.451Z,4.17
2022-12-09T09:20:34.372Z,3.93
2022-12-09T09:23:39.569Z,3.30
2022-12-09T09:26:47.007Z,2.70
2022-12-09T09:29:52.351Z,2.80
2022-12-09T09:32:57.655Z,3.37
2022-12-09T09:36:10.265Z,3.70
2022-12-09T09:39:16.037Z,3.60
2022-12-09T09:42:25.385Z,3.37
2022-12-09T09:45:30.749Z,3.40
2022-12-09T09:48:37.727Z,3.40
2022-12-09T09:51:44.785Z,3.57
2022-12-09T09:54:50.151Z,3.57
2022-12-09T09:57:59.568Z,3.60
2022-12-09T10:01:08.698Z,3.33
2022-12-09T10:04:20.696Z,3.10
2022-12-09T10:07:35.389Z,3.50
2022-12-09T10:10:45.807Z,3.63
2022-12-09T10:13:56.271Z,3.87
2022-12-09T10:17:07.692Z,3.90
2022-12-09T10:20:17.191Z,3.30
2022-12-09T10:23:25.403Z,3.50
2022-12-09T10:26:32.797Z,3.33
2022-12-09T10:29:55.806Z,2.90
2022-12-09T10:33:01.289Z,3.17
2022-12-09T10:36:07.777Z,3.50
2022-12-09T10:39:17.199Z,3.73
2022-12-09T10:42:40.438Z,3.57
2022-12-09T10:49:20.060Z,3.67
2022-12-09T10:52:26.388Z,3.13
2022-12-09T10:55:35.122Z,3.00
2022-12-09T10:58:40.793Z,3.83
2022-12-09T11:01:53.636Z,3.70
2022-12-09T11:05:07.893Z,3.63
2022-12-09T11:08:23.434Z,3.70
2022-12-09T11:11:44.663Z,3.53
2022-12-09T11:14:54.118Z,3.30
2022-12-09T11:18:01.549Z,4.03
2022-12-09T11:21:09.644Z,3.83
2022-12-09T11:24:27.675Z,4.93
2022-12-09T11:27:36.134Z,4.47
2022-12-09T11:31:12.112Z,5.40
2022-12-09T11:34:19.879Z,4.33
2022-12-09T11:37:25.109Z,4.70
2022-12-09T11:40:31.663Z,4.13
2022-12-09T11:43:41.413Z,4.30
2022-12-09T11:46:46.451Z,4.20
2022-12-09T11:49:53.866Z,4.13
2022-12-09T11:53:09.179Z,4.20
2022-12-09T11:56:18.628Z,3.90
2022-12-09T11:59:27.542Z,4.77
2022-12-09T12:02:38.188Z,3.73
2022-12-09T12:05:44.458Z,4.00
2022-12-09T12:08:52.892Z,3.53
2022-12-09T12:12:03.882Z,4.07
2022-12-09T12:15:17.871Z,3.90
2022-12-09T12:18:24.116Z,4.07
2022-12-09T12:21:42.219Z,4.43
2022-12-09T12:25:11.086Z,3.97
2022-12-09T12:28:31.357Z,4.13
2022-12-09T12:32:15.724Z,4.10
2022-12-09T12:35:47.601Z,3.70
2022-12-09T12:39:06.316Z,3.60
2022-12-09T12:42:26.234Z,4.03
2022-12-09T12:45:55.087Z,4.20
2022-12-09T12:49:13.993Z,3.60
2022-12-09T12:56:00.603Z,4.20
2022-12-09T12:59:13.769Z,4.00
2022-12-09T13:02:29.909Z,4.63
2022-12-09T13:05:39.198Z,4.97
2022-12-09T13:08:47.657Z,5.40
2022-12-09T13:12:03.619Z,5.27
2022-12-09T13:15:13.182Z,5.10
2022-12-09T13:18:22.003Z,5.00
2022-12-09T13:21:28.226Z,5.47
2022-12-09T13:24:37.900Z,4.80
2022-12-09T13:27:46.373Z,4.20
2022-12-09T13:30:56.125Z,3.90
2022-12-09T13:34:10.863Z,4.50
2022-12-09T13:37:56.138Z,4.60
2022-12-09T13:41:01.145Z,3.90
2022-12-09T13:44:08.789Z,4.53
2022-12-09T13:47:34.559Z,4.37
2022-12-09T13:50:42.292Z,5.13
2022-12-09T13:54:02.957Z,5.40
2022-12-09T13:57:14.874Z,6.07
2022-12-09T14:00:20.564Z,6.00
2022-12-09T14:03:30.969Z,5.70
2022-12-09T14:06:41.129Z,6.00
2022-12-09T14:09:51.138Z,6.03
2022-12-09T14:13:23.999Z,5.57
2022-12-09T14:16:36.020Z,5.47
2022-12-09T14:19:54.808Z,5.10
2022-12-09T14:23:26.695Z,5.17
2022-12-09T14:26:40.430Z,4.03
2022-12-09T14:29:54.591Z,5.23
2022-12-09T14:32:59.501Z,4.50
2022-12-09T14:36:07.070Z,4.33
2022-12-09T14:39:25.538Z,4.27
2022-12-09T14:42:43.350Z,3.90
2022-12-09T14:45:51.662Z,3.10
2022-12-09T14:48:58.890Z,3.53
2022-12-09T14:52:10.812Z,3.97
2022-12-09T14:55:17.497Z,3.00
2022-12-09T14:58:25.034Z,3.23
2022-12-09T15:01:29.999Z,3.10
2022-12-09T15:04:36.371Z,2.60
2022-12-09T15:07:45.865Z,2.57
2022-12-09T15:10:51.244Z,2.63
2022-12-09T15:14:19.194Z,3.00
2022-12-09T15:17:27.440Z,2.90
2022-12-09T15:20:35.357Z,2.50
2022-12-09T15:23:42.380Z,2.70
2022-12-09T15:26:59.225Z,3.00
2022-12-09T15:30:22.362Z,2.83
2022-12-09T15:33:27.981Z,2.80
2022-12-09T15:36:35.768Z,2.77
2022-12-09T15:39:43.705Z,2.67
2022-12-09T15:42:52.534Z,3.00
2022-12-09T15:45:59.103Z,2.77
2022-12-09T15:49:04.566Z,2.80
2022-12-09T15:52:09.881Z,3.23
2022-12-09T15:55:17.918Z,3.37
2022-12-09T15:58:24.903Z,4.20
2022-12-09T16:01:33.447Z,4.20
2022-12-09T16:04:43.468Z,3.73
2022-12-09T16:07:54.745Z,3.80
2022-12-09T16:10:59.670Z,3.70
2022-12-09T16:14:06.137Z,3.80
2022-12-09T16:17:21.536Z,3.80
2022-12-09T16:20:34.368Z,3.53
2022-12-09T16:23:39.229Z,3.90
2022-12-09T16:26:48.204Z,3.50
2022-12-09T16:29:54.846Z,3.70
2022-12-09T16:33:02.082Z,3.53
2022-12-09T16:36:10.093Z,3.80
2022-12-09T16:39:33.510Z,3.87
2022-12-09T16:42:41.027Z,3.87
2022-12-09T16:45:47.225Z,3.77
2022-12-09T16:48:53.519Z,4.53
2022-12-09T16:51:58.795Z,3.63
2022-12-09T16:55:06.882Z,4.13
2022-12-09T16:58:14.011Z,3.93
2022-12-09T17:01:20.515Z,4.20
2022-12-09T17:04:29.950Z,4.33
2022-12-09T17:07:34.816Z,4.40
2022-12-09T17:10:40.413Z,4.43
2022-12-09T17:13:45.349Z,3.97
2022-12-09T17:16:50.278Z,4.97
2022-12-09T17:20:00.759Z,4.90
2022-12-09T17:23:06.362Z,5.00
2022-12-09T17:26:13.459Z,5.10
2022-12-09T17:29:18.249Z,6.17
2022-12-09T17:32:25.124Z,5.10
2022-12-09T17:35:33.792Z,4.83
2022-12-09T17:38:38.897Z,6.27
2022-12-09T17:41:43.981Z,5.57
2022-12-09T17:44:48.871Z,5.63
2022-12-09T17:47:53.803Z,5.87
2022-12-09T17:51:00.642Z,5.97
2022-12-09T17:54:05.670Z,5.43
2022-12-09T17:57:10.511Z,5.53
2022-12-09T18:00:16.741Z,6.47
2022-12-09T18:03:39.357Z,5.63
2022-12-09T18:06:48.302Z,5.40
2022-12-09T18:09:54.776Z,6.43
2022-12-09T18:12:59.769Z,6.03
2022-12-09T18:16:09.830Z,7.73
2022-12-09T18:19:17.279Z,6.23
2022-12-09T18:22:23.509Z,6.40
2022-12-09T18:25:28.346Z,5.80
2022-12-09T18:28:33.163Z,5.70
2022-12-09T18:31:38.691Z,6.03
2022-12-09T18:34:43.545Z,6.20
2022-12-09T18:37:49.773Z,6.37
2022-12-09T18:41:03.760Z,7.00
2022-12-09T18:44:08.893Z,6.80
2022-12-09T18:47:13.921Z,6.67
2022-12-09T18:50:18.907Z,7.00
2022-12-09T18:53:25.573Z,6.23
2022-12-09T18:56:30.723Z,5.87
2022-12-09T18:59:35.553Z,5.90
2022-12-09T19:02:40.482Z,6.20
2022-12-09T19:05:45.418Z,6.57
2022-12-09T19:08:54.607Z,6.47
2022-12-09T19:12:16.409Z,5.90
2022-12-09T19:15:25.674Z,8.00
2022-12-09T19:18:30.950Z,8.23
2022-12-09T19:21:36.002Z,6.20
2022-12-09T19:24:43.337Z,7.17
2022-12-09T19:27:48.440Z,8.60
2022-12-09T19:30:53.363Z,6.67
2022-12-09T19:33:59.386Z,6.63
2022-12-09T19:37:04.336Z,6.30
2022-12-09T19:40:12.735Z,6.27
2022-12-09T19:43:17.569Z,6.23
2022-12-09T19:46:22.509Z,6.63
2022-12-09T19:49:27.747Z,6.63
2022-12-09T19:52:32.722Z,6.30
2022-12-09T19:55:39.041Z,6.27
2022-12-09T19:58:44.573Z,6.10
2022-12-09T20:01:49.769Z,6.33
2022-12-09T20:04:54.965Z,6.43
2022-12-09T20:07:59.939Z,5.83
2022-12-09T20:11:06.481Z,6.23
2022-12-09T20:14:14.627Z,7.53
2022-12-09T20:17:19.533Z,7.33
2022-12-09T20:20:24.340Z,6.67
2022-12-09T20:23:29.244Z,6.70
2022-12-09T20:26:36.883Z,6.47
2022-12-09T20:29:41.790Z,5.67
2022-12-09T20:32:48.517Z,5.80
2022-12-09T20:35:53.299Z,5.43
2022-12-09T20:39:00.535Z,5.87
2022-12-09T20:42:06.856Z,5.50
2022-12-09T20:45:13.378Z,6.10
2022-12-09T20:48:18.208Z,5.80
2022-12-09T20:51:25.545Z,5.87
2022-12-09T20:54:30.409Z,5.77
2022-12-09T20:57:36.628Z,5.73
2022-12-09T21:00:41.445Z,6.03
2022-12-09T21:03:47.834Z,5.87
2022-12-09T21:06:52.910Z,5.60
2022-12-09T21:09:57.829Z,5.70
2022-12-09T21:13:04.509Z,5.47
2022-12-09T21:16:11.172Z,6.07
2022-12-09T21:19:17.245Z,5.30
2022-12-09T21:22:22.053Z,5.33
2022-12-09T21:25:26.928Z,5.50
2022-12-09T21:28:33.614Z,5.13
2022-12-09T21:31:40.834Z,5.20
2022-12-09T21:34:45.773Z,5.20
2022-12-09T21:37:55.846Z,5.63
2022-12-09T21:41:04.766Z,5.57
2022-12-09T21:44:16.145Z,5.50
2022-12-09T21:47:20.998Z,5.50
2022-12-09T21:50:25.809Z,5.90
2022-12-09T21:53:31.464Z,5.37
2022-12-09T21:56:36.998Z,6.03
2022-12-09T21:59:43.243Z,5.77
2022-12-09T22:02:53.114Z,5.53
2022-12-09T22:06:01.402Z,5.33
2022-12-09T22:09:07.869Z,5.97
2022-12-09T22:12:13.053Z,5.90
2022-12-09T22:15:19.777Z,5.33
2022-12-09T22:18:24.663Z,5.73
2022-12-09T22:21:31.223Z,5.50
2022-12-09T22:24:36.376Z,5.37
2022-12-09T22:27:41.755Z,5.67
2022-12-09T22:30:47.999Z,5.83
2022-12-09T22:33:54.835Z,5.90
2022-12-09T22:37:14.883Z,6.47
2022-12-09T22:40:24.489Z,6.03
2022-12-09T22:43:35.029Z,5.97
2022-12-09T22:46:44.248Z,5.80
2022-12-09T22:49:49.343Z,5.93
2022-12-09T22:52:54.140Z,5.67
2022-12-09T22:55:59.343Z,5.50
2022-12-09T22:59:04.300Z,6.80
2022-12-09T23:02:10.828Z,6.97
2022-12-09T23:05:16.672Z,6.83
2022-12-09T23:08:22.497Z,6.90
2022-12-09T23:11:28.967Z,5.50
2022-12-09T23:14:33.918Z,5.10
2022-12-09T23:17:40.157Z,5.80
2022-12-09T23:20:45.294Z,5.60
2022-12-09T23:23:52.673Z,5.73
2022-12-09T23:26:57.641Z,5.10
2022-12-09T23:30:02.481Z,5.10
2022-12-09T23:33:08.997Z,6.23
2022-12-09T23:36:15.855Z,7.90
2022-12-09T23:39:20.725Z,7.43
2022-12-09T23:42:25.558Z,6.30
2022-12-09T23:45:30.520Z,5.60
2022-12-09T23:48:37.138Z,6.33
2022-12-09T23:51:44.550Z,5.33
2022-12-09T23:54:49.408Z,4.53
2022-12-09T23:57:54.300Z,4.20
